createdAt,value
2023-05-16T00:01:35.819Z,57.72
2023-05-16T00:03:46.455Z,57.84
2023-05-16T00:05:53.248Z,57.98
2023-05-16T00:07:57.171Z,58.20
2023-05-16T00:10:02.035Z,58.24
2023-05-16T00:12:10.635Z,58.47
2023-05-16T00:14:13.552Z,58.64
2023-05-16T00:16:18.201Z,58.76
2023-05-16T00:18:24.080Z,58.78
2023-05-16T00:20:31.214Z,58.77
2023-05-16T00:22:34.743Z,58.80
2023-05-16T00:24:44.493Z,58.85
2023-05-16T00:26:49.439Z,58.94
2023-05-16T00:28:54.762Z,58.95
2023-05-16T00:30:59.374Z,59.13
2023-05-16T00:33:03.840Z,59.19
2023-05-16T00:35:10.655Z,58.95
2023-05-16T00:37:14.075Z,58.88
2023-05-16T00:39:18.524Z,58.97
2023-05-16T00:41:23.013Z,59.09
2023-05-16T00:43:29.414Z,59.21
2023-05-16T00:45:32.863Z,59.25
2023-05-16T00:47:39.718Z,59.30
2023-05-16T00:49:42.761Z,59.22
2023-05-16T00:51:48.480Z,59.27
2023-05-16T00:53:52.823Z,59.40
2023-05-16T00:55:59.114Z,59.40
2023-05-16T00:58:06.572Z,59.06
2023-05-16T01:00:17.996Z,59.28
2023-05-16T01:02:21.427Z,59.26
2023-05-16T01:04:30.090Z,59.54
2023-05-16T01:06:37.612Z,59.56
2023-05-16T01:08:41.751Z,59.87
2023-05-16T01:11:06.595Z,60.04
2023-05-16T01:13:27.861Z,60.03
2023-05-16T01:15:41.845Z,59.88
2023-05-16T01:18:01.401Z,60.17
2023-05-16T01:20:35.365Z,60.17
2023-05-16T01:22:45.380Z,60.20
2023-05-16T01:25:05.995Z,60.66
2023-05-16T01:27:10.709Z,60.86
2023-05-16T01:29:16.664Z,60.92
2023-05-16T01:31:20.650Z,60.98
2023-05-16T01:33:23.341Z,61.31
2023-05-16T01:35:26.288Z,61.30
2023-05-16T01:37:41.882Z,61.52
2023-05-16T01:39:54.029Z,61.46
2023-05-16T01:42:04.473Z,61.39
2023-05-16T01:44:16.324Z,61.31
2023-05-16T01:46:26.750Z,61.35
2023-05-16T01:48:35.699Z,61.41
2023-05-16T01:50:46.493Z,61.49
2023-05-16T01:53:06.984Z,61.62
2023-05-16T01:55:16.711Z,61.75
2023-05-16T01:57:24.344Z,61.82
2023-05-16T01:59:27.682Z,61.79
2023-05-16T02:01:33.806Z,61.53
2023-05-16T02:03:38.597Z,61.64
2023-05-16T02:05:44.557Z,61.53
2023-05-16T02:07:49.262Z,61.63
2023-05-16T02:09:53.754Z,61.41
2023-05-16T02:11:56.609Z,61.58
2023-05-16T02:14:00.468Z,61.68
2023-05-16T02:16:04.477Z,61.52
2023-05-16T02:18:08.490Z,61.54
2023-05-16T02:20:12.497Z,61.41
2023-05-16T02:22:15.542Z,61.41
2023-05-16T02:24:18.380Z,61.47
2023-05-16T02:26:22.216Z,61.38
2023-05-16T02:28:25.835Z,61.53
2023-05-16T02:30:28.852Z,61.38
2023-05-16T02:32:34.037Z,61.41
2023-05-16T02:34:37.309Z,61.41
2023-05-16T02:36:40.166Z,61.43
2023-05-16T02:38:50.988Z,61.30
2023-05-16T02:40:53.982Z,61.43
2023-05-16T02:42:58.396Z,61.28
2023-05-16T02:45:01.094Z,61.22
2023-05-16T02:47:04.164Z,61.48
2023-05-16T02:49:07.440Z,61.38
2023-05-16T02:51:10.096Z,61.52
2023-05-16T02:53:13.653Z,61.65
2023-05-16T02:55:22.182Z,61.65
2023-05-16T02:57:26.649Z,61.71
2023-05-16T02:59:30.747Z,61.85
2023-05-16T03:01:35.226Z,62.02
2023-05-16T03:03:40.659Z,62.06
2023-05-16T03:05:47.415Z,61.95
2023-05-16T03:07:50.764Z,62.06
2023-05-16T03:09:53.836Z,62.21
2023-05-16T03:11:56.592Z,61.96
2023-05-16T03:14:01.824Z,62.30
2023-05-16T03:16:06.529Z,62.33
2023-05-16T03:18:09.549Z,62.51
2023-05-16T03:20:13.329Z,62.49
2023-05-16T03:22:16.394Z,62.44
2023-05-16T03:24:19.153Z,62.35
2023-05-16T03:26:22.832Z,62.27
2023-05-16T03:28:27.427Z,62.20
2023-05-16T03:30:31.531Z,62.21
2023-05-16T03:32:34.525Z,62.32
2023-05-16T03:34:37.859Z,62.51
2023-05-16T03:36:41.610Z,62.36
2023-05-16T03:38:44.953Z,62.38
2023-05-16T03:40:47.537Z,62.54
2023-05-16T03:42:50.374Z,62.63
2023-05-16T03:44:53.128Z,62.79
2023-05-16T03:46:56.221Z,62.56
2023-05-16T03:49:00.108Z,62.70
2023-05-16T03:51:03.775Z,62.71
2023-05-16T03:53:06.425Z,62.87
2023-05-16T03:55:09.439Z,63.02
2023-05-16T03:57:12.670Z,63.26
2023-05-16T03:59:15.612Z,63.31
2023-05-16T04:01:18.456Z,63.49
2023-05-16T04:03:28.871Z,63.60
2023-05-16T04:05:32.016Z,63.71
2023-05-16T04:07:34.690Z,63.91
2023-05-16T04:09:37.322Z,63.75
2023-05-16T04:11:42.586Z,63.75
2023-05-16T04:13:46.829Z,63.84
2023-05-16T04:15:50.277Z,63.69
2023-05-16T04:17:53.106Z,63.80
2023-05-16T04:19:56.682Z,63.78
2023-05-16T04:21:59.214Z,63.94
2023-05-16T04:24:02.506Z,63.79
2023-05-16T04:26:05.263Z,63.79
2023-05-16T04:28:07.822Z,63.85
2023-05-16T04:30:12.390Z,64.02
2023-05-16T04:32:15.485Z,63.97
2023-05-16T04:34:19.165Z,64.04
2023-05-16T04:36:23.883Z,64.04
2023-05-16T04:38:26.725Z,64.12
2023-05-16T04:40:29.592Z,64.05
2023-05-16T04:42:32.796Z,64.20
2023-05-16T04:44:35.405Z,64.28
2023-05-16T04:46:38.237Z,64.38
2023-05-16T04:48:41.628Z,64.45
2023-05-16T04:50:44.444Z,64.25
2023-05-16T04:52:48.246Z,64.24
2023-05-16T04:54:52.356Z,64.39
2023-05-16T04:56:55.415Z,64.31
2023-05-16T04:58:59.890Z,64.45
2023-05-16T05:01:04.088Z,64.46
2023-05-16T05:03:07.915Z,64.55
2023-05-16T05:05:11.499Z,64.44
2023-05-16T05:07:20.521Z,64.39
2023-05-16T05:09:23.792Z,64.56
2023-05-16T05:11:27.441Z,64.47
2023-05-16T05:13:30.656Z,64.59
2023-05-16T05:15:36.121Z,64.72
2023-05-16T05:17:39.352Z,64.68
2023-05-16T05:19:45.676Z,64.71
2023-05-16T05:21:48.716Z,64.83
2023-05-16T05:23:51.619Z,64.90
2023-05-16T05:25:55.234Z,64.82
2023-05-16T05:27:59.232Z,64.77
2023-05-16T05:30:03.900Z,64.89
2023-05-16T05:32:08.567Z,64.95
2023-05-16T05:34:11.805Z,65.09
2023-05-16T05:36:16.396Z,65.11
2023-05-16T05:38:21.013Z,65.20
2023-05-16T05:40:24.381Z,65.41
2023-05-16T05:42:26.952Z,65.50
2023-05-16T05:44:30.873Z,65.73
2023-05-16T05:46:35.306Z,65.90
2023-05-16T05:48:38.429Z,66.18
2023-05-16T05:50:45.603Z,66.06
2023-05-16T05:52:50.611Z,66.54
2023-05-16T05:54:54.531Z,66.40
2023-05-16T05:56:58.199Z,66.39
2023-05-16T05:59:04.123Z,66.71
2023-05-16T06:01:06.608Z,66.57
2023-05-16T06:03:09.341Z,66.74
2023-05-16T06:05:12.025Z,66.70
2023-05-16T06:07:16.912Z,66.44
2023-05-16T06:09:22.233Z,66.48
2023-05-16T06:11:28.189Z,66.52
2023-05-16T06:13:32.080Z,66.23
2023-05-16T06:15:35.417Z,66.17
2023-05-16T06:17:38.810Z,65.97
2023-05-16T06:19:41.443Z,65.88
2023-05-16T06:21:44.343Z,65.72
2023-05-16T06:23:48.784Z,65.80
2023-05-16T06:25:52.441Z,65.90
2023-05-16T06:27:57.576Z,65.79
2023-05-16T06:30:00.935Z,65.59
2023-05-16T06:32:04.579Z,65.42
2023-05-16T06:34:07.514Z,65.11
2023-05-16T06:36:10.546Z,65.24
2023-05-16T06:38:13.472Z,65.00
2023-05-16T06:40:17.611Z,65.03
2023-05-16T06:42:20.886Z,64.94
2023-05-16T06:44:26.187Z,64.91
2023-05-16T06:46:29.512Z,64.72
2023-05-16T06:48:33.237Z,64.64
2023-05-16T06:50:38.449Z,64.69
2023-05-16T06:52:42.171Z,64.62
2023-05-16T06:54:46.286Z,64.53
2023-05-16T06:56:49.808Z,64.66
2023-05-16T06:58:55.012Z,64.41
2023-05-16T07:00:58.603Z,64.47
2023-05-16T07:03:04.681Z,64.29
2023-05-16T07:05:11.696Z,64.18
2023-05-16T07:07:17.653Z,64.14
2023-05-16T07:09:22.395Z,64.10
2023-05-16T07:11:25.245Z,64.14
2023-05-16T07:13:29.690Z,63.58
2023-05-16T07:15:41.019Z,63.58
2023-05-16T07:17:43.701Z,63.42
2023-05-16T07:19:46.578Z,63.16
2023-05-16T07:21:49.828Z,63.07
2023-05-16T07:23:52.843Z,62.95
2023-05-16T07:25:56.894Z,62.91
2023-05-16T07:28:01.030Z,62.30
2023-05-16T07:30:05.168Z,61.68
2023-05-16T07:32:17.321Z,61.81
2023-05-16T07:34:24.794Z,61.55
2023-05-16T07:36:29.660Z,61.94
2023-05-16T07:38:40.817Z,61.70
2023-05-16T07:40:46.537Z,61.30
2023-05-16T07:42:53.235Z,61.09
2023-05-16T07:45:00.876Z,60.30
2023-05-16T07:47:07.288Z,60.27
2023-05-16T07:49:14.066Z,60.43
2023-05-16T07:51:20.803Z,60.36
2023-05-16T07:53:23.777Z,59.96
2023-05-16T07:55:29.242Z,59.73
2023-05-16T07:57:34.787Z,59.34
2023-05-16T07:59:38.943Z,58.83
2023-05-16T08:01:46.058Z,58.82
2023-05-16T08:03:55.022Z,58.63
2023-05-16T08:05:58.126Z,58.42
2023-05-16T08:08:01.206Z,58.16
2023-05-16T08:10:05.917Z,57.94
2023-05-16T08:12:09.766Z,57.35
2023-05-16T08:14:12.854Z,57.03
2023-05-16T08:16:15.986Z,56.64
2023-05-16T08:18:22.080Z,56.32
2023-05-16T08:20:28.407Z,56.39
2023-05-16T08:22:34.568Z,55.98
2023-05-16T08:24:37.436Z,56.20
2023-05-16T08:26:42.162Z,55.70
2023-05-16T08:28:54.589Z,55.66
2023-05-16T08:30:57.860Z,56.11
2023-05-16T08:33:04.898Z,55.66
2023-05-16T08:35:10.456Z,56.05
2023-05-16T08:37:18.855Z,55.72
2023-05-16T08:39:22.884Z,55.24
2023-05-16T08:41:26.054Z,55.34
2023-05-16T08:43:30.069Z,55.72
2023-05-16T08:45:36.085Z,55.69
2023-05-16T08:47:43.744Z,55.78
2023-05-16T08:49:51.751Z,55.43
2023-05-16T08:51:58.989Z,55.20
2023-05-16T08:54:23.042Z,55.22
2023-05-16T08:56:28.820Z,55.03
2023-05-16T08:58:32.178Z,55.27
2023-05-16T09:00:37.237Z,55.50
2023-05-16T09:02:44.995Z,55.36
2023-05-16T09:04:50.436Z,55.55
2023-05-16T09:06:53.874Z,55.55
2023-05-16T09:08:57.153Z,55.69
2023-05-16T09:11:02.216Z,55.54
2023-05-16T09:13:07.107Z,55.74
2023-05-16T09:15:26.860Z,55.93
2023-05-16T09:17:43.912Z,56.16
2023-05-16T09:19:53.593Z,56.30
2023-05-16T09:21:57.555Z,56.62
2023-05-16T09:24:10.993Z,56.44
2023-05-16T09:26:26.662Z,56.46
2023-05-16T09:28:32.107Z,56.58
2023-05-16T09:30:36.286Z,56.81
2023-05-16T09:32:44.111Z,56.93
2023-05-16T09:34:49.526Z,56.98
2023-05-16T09:36:55.369Z,56.93
2023-05-16T09:39:00.546Z,57.00
2023-05-16T09:41:04.542Z,57.09
2023-05-16T09:43:08.957Z,57.19
2023-05-16T09:45:16.026Z,57.45
2023-05-16T09:47:20.566Z,57.28
2023-05-16T09:49:24.681Z,56.80
2023-05-16T09:51:30.381Z,56.98
2023-05-16T09:53:35.727Z,57.02
2023-05-16T09:55:40.047Z,57.15
2023-05-16T09:57:45.661Z,57.40
2023-05-16T09:59:50.066Z,57.54
2023-05-16T10:01:54.948Z,57.51
2023-05-16T10:04:18.946Z,57.52
2023-05-16T10:06:47.784Z,57.71
2023-05-16T10:09:17.559Z,57.34
2023-05-16T10:11:22.587Z,57.34
2023-05-16T10:13:30.839Z,57.62
2023-05-16T10:15:36.853Z,57.77
2023-05-16T10:17:41.739Z,57.70
2023-05-16T10:19:48.004Z,57.88
2023-05-16T10:22:06.109Z,57.87
2023-05-16T10:24:13.603Z,57.36
2023-05-16T10:26:21.592Z,56.82
2023-05-16T10:28:28.711Z,56.55
2023-05-16T10:30:36.604Z,56.74
2023-05-16T10:32:42.504Z,56.41
2023-05-16T10:35:06.115Z,56.17
2023-05-16T10:37:09.741Z,56.28
2023-05-16T10:39:14.934Z,56.72
2023-05-16T10:41:23.016Z,56.41
2023-05-16T10:43:30.471Z,56.41
2023-05-16T10:45:42.342Z,56.21
2023-05-16T10:47:58.824Z,55.96
2023-05-16T10:50:04.551Z,56.02
2023-05-16T10:52:12.913Z,56.26
2023-05-16T10:54:20.653Z,56.09
2023-05-16T10:56:25.610Z,55.83
2023-05-16T10:58:31.979Z,56.02
2023-05-16T11:00:35.970Z,55.59
2023-05-16T11:02:42.373Z,55.44
2023-05-16T11:04:48.584Z,55.47
2023-05-16T11:06:59.059Z,55.49
2023-05-16T11:09:05.896Z,55.59
2023-05-16T11:11:47.361Z,55.58
2023-05-16T11:14:03.219Z,55.46
2023-05-16T11:16:28.989Z,55.61
2023-05-16T11:18:33.673Z,55.37
2023-05-16T11:20:39.765Z,55.52
2023-05-16T11:22:43.368Z,55.95
2023-05-16T11:25:00.675Z,56.14
2023-05-16T11:27:07.263Z,56.05
2023-05-16T11:29:11.639Z,55.69
2023-05-16T11:31:18.503Z,55.57
2023-05-16T11:33:24.088Z,55.56
2023-05-16T11:35:32.596Z,55.56
2023-05-16T11:37:37.939Z,55.05
2023-05-16T11:39:41.702Z,54.71
2023-05-16T11:41:48.909Z,54.61
2023-05-16T11:43:53.948Z,54.74
2023-05-16T11:46:03.304Z,54.88
2023-05-16T11:48:10.183Z,54.91
2023-05-16T11:50:22.119Z,55.14
2023-05-16T11:52:26.261Z,54.64
2023-05-16T11:54:37.824Z,54.73
2023-05-16T11:56:44.085Z,54.69
2023-05-16T11:58:50.001Z,54.65
2023-05-16T12:00:53.818Z,54.62
2023-05-16T12:03:04.337Z,54.51
2023-05-16T12:05:10.786Z,54.38
2023-05-16T12:07:18.663Z,54.64
2023-05-16T12:09:23.713Z,54.82
2023-05-16T12:11:27.156Z,54.72
2023-05-16T12:13:31.474Z,54.67
2023-05-16T12:15:34.523Z,54.65
2023-05-16T12:17:39.229Z,54.82
2023-05-16T12:19:46.460Z,54.75
2023-05-16T12:21:54.438Z,54.97
2023-05-16T12:24:01.505Z,54.87
2023-05-16T12:26:07.413Z,54.91
2023-05-16T12:28:15.597Z,55.00
2023-05-16T12:30:25.618Z,55.23
2023-05-16T12:32:30.531Z,55.44
2023-05-16T12:34:35.193Z,55.16
2023-05-16T12:36:40.207Z,55.07
2023-05-16T12:38:48.385Z,55.11
2023-05-16T12:40:58.661Z,55.18
2023-05-16T12:43:05.312Z,54.93
2023-05-16T12:45:22.576Z,54.57
2023-05-16T12:47:35.577Z,54.46
2023-05-16T12:49:51.428Z,54.34
2023-05-16T12:51:59.942Z,54.57
2023-05-16T12:54:11.863Z,54.27
2023-05-16T12:56:19.805Z,54.51
2023-05-16T12:58:24.062Z,54.29
2023-05-16T13:00:36.727Z,54.38
2023-05-16T13:02:41.152Z,54.58
2023-05-16T13:04:46.368Z,54.32
2023-05-16T13:06:59.389Z,54.40
2023-05-16T13:09:05.370Z,54.28
2023-05-16T13:11:08.042Z,53.76
2023-05-16T13:13:35.094Z,53.10
2023-05-16T13:15:42.511Z,53.32
2023-05-16T13:17:49.192Z,53.81
2023-05-16T13:19:54.169Z,53.94
2023-05-16T13:21:58.754Z,54.12
2023-05-16T13:24:01.988Z,54.10
2023-05-16T13:26:11.715Z,54.49
2023-05-16T13:28:17.599Z,54.73
2023-05-16T13:30:23.095Z,54.77
2023-05-16T13:32:27.247Z,54.70
2023-05-16T13:34:35.360Z,54.95
2023-05-16T13:36:53.203Z,53.92
2023-05-16T13:39:02.923Z,53.66
2023-05-16T13:41:14.865Z,53.68
2023-05-16T13:43:18.165Z,53.42
2023-05-16T13:45:26.459Z,53.16
2023-05-16T13:47:32.995Z,53.40
2023-05-16T13:49:36.435Z,53.11
2023-05-16T13:51:40.443Z,52.98
2023-05-16T13:53:44.834Z,53.11
2023-05-16T13:55:48.029Z,52.99
2023-05-16T13:57:56.686Z,53.17
2023-05-16T14:02:16.450Z,52.81
2023-05-16T14:04:27.094Z,52.61
2023-05-16T14:06:32.027Z,52.59
2023-05-16T14:08:40.049Z,52.83
2023-05-16T14:10:44.577Z,53.06
2023-05-16T14:12:52.179Z,52.73
2023-05-16T14:14:56.054Z,52.59
2023-05-16T14:17:00.385Z,52.87
2023-05-16T14:19:05.595Z,52.95
2023-05-16T14:21:08.948Z,53.14
2023-05-16T14:23:12.174Z,53.19
2023-05-16T14:25:15.095Z,52.53
2023-05-16T14:27:25.043Z,52.67
2023-05-16T14:29:31.456Z,52.54
2023-05-16T14:31:36.695Z,52.57
2023-05-16T14:33:44.277Z,52.53
2023-05-16T14:35:50.309Z,52.36
2023-05-16T14:37:53.636Z,52.34
2023-05-16T14:39:58.020Z,52.41
2023-05-16T14:42:08.307Z,52.31
2023-05-16T14:44:13.130Z,52.15
2023-05-16T14:46:19.406Z,52.26
2023-05-16T14:48:22.923Z,52.06
2023-05-16T14:50:27.976Z,51.61
2023-05-16T14:52:33.297Z,52.05
2023-05-16T14:54:36.907Z,51.97
2023-05-16T14:56:42.104Z,51.81
2023-05-16T14:58:46.914Z,51.87
2023-05-16T15:00:52.847Z,52.01
2023-05-16T15:02:57.244Z,52.06
2023-05-16T15:05:01.639Z,52.16
2023-05-16T15:07:08.587Z,52.00
2023-05-16T15:09:12.492Z,51.94
2023-05-16T15:11:15.591Z,52.18
2023-05-16T15:13:18.654Z,52.35
2023-05-16T15:15:24.557Z,52.42
2023-05-16T15:17:28.040Z,52.37
2023-05-16T15:19:33.091Z,52.51
2023-05-16T15:21:37.557Z,51.93
2023-05-16T15:23:42.576Z,51.72
2023-05-16T15:25:47.670Z,51.68
2023-05-16T15:27:52.846Z,51.98
2023-05-16T15:30:06.888Z,51.62
2023-05-16T15:32:13.947Z,51.75
2023-05-16T15:34:21.537Z,51.53
2023-05-16T15:36:24.707Z,51.46
2023-05-16T15:38:28.036Z,51.21
2023-05-16T15:40:31.226Z,51.29
2023-05-16T15:42:35.931Z,50.73
2023-05-16T15:44:41.893Z,50.86
2023-05-16T15:46:47.125Z,50.89
2023-05-16T15:48:50.600Z,50.98
2023-05-16T15:50:54.029Z,50.82
2023-05-16T15:53:01.208Z,50.79
2023-05-16T15:55:09.478Z,50.71
2023-05-16T15:57:12.566Z,50.77
2023-05-16T15:59:19.163Z,50.16
2023-05-16T16:01:23.513Z,48.69
2023-05-16T16:03:26.841Z,47.23
2023-05-16T16:05:34.540Z,46.48
2023-05-16T16:07:40.388Z,46.24
2023-05-16T16:09:52.361Z,45.49
2023-05-16T16:11:57.038Z,45.50
2023-05-16T16:14:04.212Z,45.68
2023-05-16T16:16:11.459Z,45.20
2023-05-16T16:18:15.600Z,45.41
2023-05-16T16:20:18.787Z,45.39
2023-05-16T16:22:26.033Z,45.29
2023-05-16T16:24:32.794Z,45.13
2023-05-16T16:26:38.135Z,44.99
2023-05-16T16:28:43.142Z,44.60
2023-05-16T16:30:51.279Z,44.05
2023-05-16T16:33:03.059Z,43.93
2023-05-16T16:35:09.150Z,44.02
2023-05-16T16:37:34.861Z,43.58
2023-05-16T16:39:39.790Z,43.05
2023-05-16T16:41:44.705Z,43.30
2023-05-16T16:43:53.990Z,43.43
2023-05-16T16:45:58.384Z,43.71
2023-05-16T16:48:05.123Z,43.32
2023-05-16T16:50:11.807Z,42.50
2023-05-16T16:52:18.218Z,42.52
2023-05-16T16:54:26.782Z,42.69
2023-05-16T16:56:33.739Z,41.54
2023-05-16T16:58:39.393Z,40.71
2023-05-16T17:00:42.823Z,40.62
2023-05-16T17:02:47.531Z,40.96
2023-05-16T17:04:54.582Z,41.13
2023-05-16T17:06:58.903Z,41.33
2023-05-16T17:09:07.081Z,40.67
2023-05-16T17:11:12.168Z,39.96
2023-05-16T17:13:18.469Z,37.83
2023-05-16T17:15:25.033Z,37.49
2023-05-16T17:17:36.383Z,36.99
2023-05-16T17:19:42.233Z,37.64
2023-05-16T17:21:45.354Z,36.89
2023-05-16T17:23:53.776Z,36.02
2023-05-16T17:25:59.951Z,36.33
2023-05-16T17:28:04.249Z,36.34
2023-05-16T17:30:08.625Z,34.95
2023-05-16T17:32:15.423Z,34.67
2023-05-16T17:34:21.179Z,34.48
2023-05-16T17:36:25.560Z,33.27
2023-05-16T17:38:31.854Z,33.29
2023-05-16T17:40:35.037Z,34.11
2023-05-16T17:42:51.856Z,33.74
2023-05-16T17:44:54.811Z,34.25
2023-05-16T17:47:01.234Z,34.25
2023-05-16T17:49:08.058Z,33.71
2023-05-16T17:51:13.843Z,34.04
2023-05-16T17:53:16.602Z,34.36
2023-05-16T17:55:20.715Z,34.74
2023-05-16T17:57:24.059Z,33.68
2023-05-16T17:59:31.153Z,34.43
2023-05-16T18:01:35.880Z,34.84
2023-05-16T18:03:41.571Z,35.16
2023-05-16T18:05:45.774Z,35.39
2023-05-16T18:07:48.630Z,35.49
2023-05-16T18:09:53.647Z,35.72
2023-05-16T18:11:56.904Z,35.64
2023-05-16T18:14:01.250Z,35.38
2023-05-16T18:16:04.596Z,35.83
2023-05-16T18:18:10.160Z,36.19
2023-05-16T18:20:16.058Z,36.53
2023-05-16T18:22:24.882Z,36.59
2023-05-16T18:24:27.676Z,36.51
2023-05-16T18:26:31.366Z,36.48
2023-05-16T18:28:36.359Z,36.77
2023-05-16T18:30:41.701Z,36.80
2023-05-16T18:32:45.932Z,36.51
2023-05-16T18:34:49.098Z,36.72
2023-05-16T18:36:54.832Z,36.79
2023-05-16T18:39:00.307Z,37.00
2023-05-16T18:41:04.096Z,37.05
2023-05-16T18:43:08.089Z,37.54
2023-05-16T18:45:13.422Z,37.52
2023-05-16T18:47:21.827Z,37.80
2023-05-16T18:49:27.918Z,37.87
2023-05-16T18:51:33.641Z,38.04
2023-05-16T18:53:44.543Z,38.17
2023-05-16T18:55:50.033Z,38.41
2023-05-16T18:57:59.002Z,38.60
2023-05-16T19:00:03.802Z,38.41
2023-05-16T19:02:10.798Z,38.32
2023-05-16T19:04:22.434Z,37.97
2023-05-16T19:06:30.802Z,37.80
2023-05-16T19:08:47.580Z,38.04
2023-05-16T19:10:54.155Z,38.21
2023-05-16T19:13:07.300Z,38.29
2023-05-16T19:15:11.382Z,38.48
2023-05-16T19:17:15.689Z,38.58
2023-05-16T19:19:22.969Z,38.64
2023-05-16T19:21:26.596Z,38.53
2023-05-16T19:23:30.390Z,38.68
2023-05-16T19:25:35.395Z,38.82
2023-05-16T19:27:39.884Z,38.74
2023-05-16T19:29:43.189Z,38.99
2023-05-16T19:31:46.007Z,39.17
2023-05-16T19:33:52.269Z,39.25
2023-05-16T19:36:02.825Z,39.40
2023-05-16T19:38:08.479Z,39.47
2023-05-16T19:40:16.424Z,39.58
2023-05-16T19:42:26.795Z,39.55
2023-05-16T19:44:31.260Z,39.93
2023-05-16T19:46:37.814Z,40.12
2023-05-16T19:48:41.047Z,40.03
2023-05-16T19:50:43.967Z,40.42
2023-05-16T19:52:47.749Z,40.47
2023-05-16T19:54:51.770Z,40.47
2023-05-16T19:57:02.550Z,40.62
2023-05-16T19:59:09.403Z,40.56
2023-05-16T20:01:12.295Z,40.71
2023-05-16T20:03:15.034Z,40.87
2023-05-16T20:05:23.227Z,40.79
2023-05-16T20:07:27.606Z,40.88
2023-05-16T20:09:33.647Z,40.96
2023-05-16T20:11:40.587Z,40.95
2023-05-16T20:13:44.734Z,41.07
2023-05-16T20:15:48.284Z,41.26
2023-05-16T20:17:52.563Z,41.16
2023-05-16T20:19:55.461Z,41.49
2023-05-16T20:21:58.806Z,41.58
2023-05-16T20:24:02.196Z,41.60
2023-05-16T20:26:05.385Z,41.71
2023-05-16T20:28:08.793Z,41.96
2023-05-16T20:30:11.975Z,42.02
2023-05-16T20:32:17.259Z,42.02
2023-05-16T20:34:37.428Z,42.07
2023-05-16T20:36:41.449Z,42.31
2023-05-16T20:38:46.855Z,42.37
2023-05-16T20:40:54.384Z,42.45
2023-05-16T20:42:56.974Z,42.69
2023-05-16T20:45:10.984Z,42.53
2023-05-16T20:47:28.070Z,42.55
2023-05-16T20:49:41.461Z,42.71
2023-05-16T20:51:51.635Z,42.96
2023-05-16T20:53:57.401Z,42.96
2023-05-16T20:56:02.717Z,43.06
2023-05-16T20:58:06.554Z,43.16
2023-05-16T21:00:13.180Z,43.19
2023-05-16T21:02:20.848Z,43.27
2023-05-16T21:04:25.545Z,43.56
2023-05-16T21:06:28.468Z,43.42
2023-05-16T21:08:32.475Z,43.76
2023-05-16T21:10:36.425Z,43.73
2023-05-16T21:12:43.121Z,43.86
2023-05-16T21:14:46.954Z,44.07
2023-05-16T21:16:52.582Z,43.97
2023-05-16T21:18:56.713Z,44.29
2023-05-16T21:21:02.131Z,44.21
2023-05-16T21:23:08.691Z,44.25
2023-05-16T21:25:17.073Z,44.47
2023-05-16T21:27:26.544Z,44.45
2023-05-16T21:29:31.523Z,44.69
2023-05-16T21:31:34.601Z,44.68
2023-05-16T21:33:37.276Z,44.72
2023-05-16T21:35:49.565Z,44.99
2023-05-16T21:37:52.549Z,44.91
2023-05-16T21:39:56.957Z,44.96
2023-05-16T21:42:01.339Z,45.09
2023-05-16T21:44:05.680Z,45.03
2023-05-16T21:46:08.591Z,44.79
2023-05-16T21:48:13.979Z,44.87
2023-05-16T21:50:21.371Z,44.85
2023-05-16T21:52:28.670Z,44.68
2023-05-16T21:54:31.256Z,44.80
2023-05-16T21:56:34.116Z,44.70
2023-05-16T21:58:39.097Z,44.79
2023-05-16T22:00:42.778Z,44.72
2023-05-16T22:02:46.024Z,44.84
2023-05-16T22:04:52.395Z,44.78
2023-05-16T22:06:57.738Z,44.92
2023-05-16T22:09:09.288Z,44.94
2023-05-16T22:11:13.104Z,45.03
2023-05-16T22:13:16.997Z,45.29
2023-05-16T22:15:24.495Z,45.27
2023-05-16T22:17:27.854Z,45.52
2023-05-16T22:19:31.069Z,45.32
2023-05-16T22:21:34.468Z,45.46
2023-05-16T22:23:38.096Z,45.51
2023-05-16T22:25:42.030Z,45.48
2023-05-16T22:27:45.592Z,45.49
2023-05-16T22:29:50.918Z,45.53
2023-05-16T22:31:53.780Z,45.51
2023-05-16T22:34:00.638Z,45.59
2023-05-16T22:36:05.173Z,45.59
2023-05-16T22:38:07.893Z,45.79
2023-05-16T22:40:11.192Z,46.04
2023-05-16T22:42:19.366Z,46.03
2023-05-16T22:44:23.051Z,46.25
2023-05-16T22:46:26.678Z,46.58
2023-05-16T22:48:30.426Z,46.32
2023-05-16T22:50:33.256Z,46.23
2023-05-16T22:52:41.843Z,46.43
2023-05-16T22:54:46.593Z,46.61
2023-05-16T22:56:50.404Z,46.53
2023-05-16T22:58:53.575Z,46.73
2023-05-16T23:00:58.377Z,47.02
2023-05-16T23:03:03.093Z,47.21
2023-05-16T23:05:08.341Z,47.50
2023-05-16T23:07:12.582Z,47.69
2023-05-16T23:09:18.321Z,47.94
2023-05-16T23:11:25.826Z,48.34
2023-05-16T23:13:29.204Z,48.53
2023-05-16T23:15:32.601Z,48.54
2023-05-16T23:17:41.883Z,48.59
2023-05-16T23:19:50.233Z,49.01
2023-05-16T23:21:59.926Z,49.06
2023-05-16T23:24:03.881Z,49.23
2023-05-16T23:26:06.667Z,48.92
2023-05-16T23:28:12.800Z,49.29
2023-05-16T23:30:18.726Z,49.16
2023-05-16T23:32:24.581Z,49.27
2023-05-16T23:34:28.057Z,49.82
2023-05-16T23:36:32.672Z,49.89
2023-05-16T23:38:36.255Z,49.97
2023-05-16T23:40:40.112Z,50.00
2023-05-16T23:42:42.895Z,50.02
2023-05-16T23:44:49.969Z,50.23
2023-05-16T23:46:57.422Z,50.58
2023-05-16T23:49:03.286Z,50.66
2023-05-16T23:51:08.279Z,50.64
2023-05-16T23:53:14.886Z,50.75
2023-05-16T23:55:21.242Z,51.04
2023-05-16T23:57:27.826Z,50.67
2023-05-16T23:59:31.101Z,50.80
